createdAt,value
2022-09-03T03:33:32.527Z,9.76
2022-09-03T03:38:34.930Z,9.76
2022-09-03T03:43:36.574Z,9.79
2022-09-03T03:48:38.345Z,9.79
2022-09-03T03:53:40.395Z,9.71
2022-09-03T03:58:42.409Z,9.71
2022-09-03T04:03:44.360Z,9.72
2022-09-03T04:08:47.066Z,9.72
2022-09-03T04:13:51.800Z,9.64
2022-09-03T04:18:54.054Z,9.78
2022-09-03T04:23:56.524Z,9.78
2022-09-03T04:28:58.535Z,9.81
2022-09-03T04:34:00.375Z,9.81
2022-09-03T04:39:02.103Z,9.93
2022-09-03T04:44:03.709Z,9.93
2022-09-03T04:49:05.495Z,10.02
2022-09-03T04:54:07.152Z,10.02
2022-09-03T04:59:09.014Z,10.05
2022-09-03T05:04:10.738Z,10.05
2022-09-03T05:09:12.588Z,10.27
2022-09-03T05:14:14.303Z,10.27
2022-09-03T05:19:16.045Z,10.45
2022-09-03T05:24:17.757Z,10.45
2022-09-03T05:29:19.507Z,11.21
2022-09-03T05:34:21.234Z,12
2022-09-03T05:39:22.923Z,12
2022-09-03T05:44:24.890Z,12.73
2022-09-03T05:49:26.550Z,12.73
2022-09-03T05:54:28.222Z,13.07
2022-09-03T05:59:29.817Z,13.07
2022-09-03T06:04:31.509Z,13.34
2022-09-03T06:09:35.445Z,13.34
2022-09-03T06:14:37.261Z,13.47
2022-09-03T06:19:38.946Z,13.47
2022-09-03T06:24:40.543Z,13.54
2022-09-03T06:29:42.215Z,13.54
2022-09-03T06:34:43.988Z,13.82
2022-09-03T06:39:45.773Z,13.82
2022-09-03T06:44:47.745Z,13.98
2022-09-03T06:49:49.409Z,14.16
2022-09-03T06:54:51.173Z,14.16
2022-09-03T06:59:52.811Z,14.44
2022-09-03T07:04:54.453Z,14.44
2022-09-03T07:09:56.962Z,14.59
2022-09-03T07:14:58.555Z,14.59
2022-09-03T07:20:02.037Z,15.07
2022-09-03T07:25:04.240Z,15.07
2022-09-03T07:30:06.561Z,15.35
2022-09-03T07:35:08.354Z,15.35
2022-09-03T07:40:11.046Z,15.59
2022-09-03T07:45:13.099Z,15.59
2022-09-03T07:50:14.844Z,15.91
2022-09-03T07:55:16.529Z,15.91
2022-09-03T08:00:18.167Z,16.73
2022-09-03T08:05:19.792Z,16.73
2022-09-03T08:10:21.689Z,18.01
2022-09-03T08:15:23.643Z,17.4
2022-09-03T08:20:25.361Z,17.4
2022-09-03T08:25:27.307Z,17.66
2022-09-03T08:30:29.060Z,17.66
2022-09-03T08:35:30.719Z,17.95
2022-09-03T08:40:35.853Z,17.95
2022-09-03T08:45:37.565Z,18.36
2022-09-03T08:50:41.038Z,18.36
2022-09-03T08:55:46.811Z,18.85
2022-09-03T09:00:55.031Z,18.85
2022-09-03T09:06:02.567Z,19.82
2022-09-03T09:11:07.716Z,19.82
2022-09-03T09:16:13.688Z,22.77
2022-09-03T09:21:21.080Z,22.77
2022-09-03T09:26:27.929Z,24.06
2022-09-03T09:31:31.853Z,22.28
2022-09-03T09:36:36.876Z,22.28
2022-09-03T09:41:38.484Z,24.89
2022-09-03T09:46:40.220Z,24.89
2022-09-03T09:51:42.515Z,22.41
2022-09-03T09:56:44.563Z,22.41
2022-09-03T10:01:46.190Z,20.3
2022-09-03T10:06:53.199Z,20.3
2022-09-03T10:17:04.170Z,19.57
2022-09-03T10:22:09.376Z,19.6
2022-09-03T10:27:13.512Z,19.6
2022-09-03T10:32:21.319Z,19.69
2022-09-03T10:37:28.286Z,19.76
2022-09-03T10:42:36.418Z,19.76
2022-09-03T10:58:00.682Z,20.81
2022-09-03T11:08:20.851Z,21.7
2022-09-03T11:13:26.729Z,21.7
2022-09-03T11:18:30.728Z,21.39
2022-09-03T11:23:35.966Z,21.39
2022-09-03T11:28:41.766Z,21.46
2022-09-03T11:33:46.661Z,21.46
2022-09-03T11:38:50.783Z,22.68
2022-09-03T11:43:52.590Z,21.77
2022-09-03T11:48:55.162Z,21.77
2022-09-03T11:53:58.477Z,21.81
2022-09-03T11:59:05.467Z,21.81
2022-09-03T12:04:07.550Z,22.09
2022-09-03T12:09:16.415Z,22.09
2022-09-03T12:14:21.447Z,22.81
2022-09-03T12:19:29.958Z,22.81
2022-09-03T12:24:32.637Z,22.36
2022-09-03T12:34:45.887Z,23.85
2022-09-03T12:40:08.171Z,23.85
2022-09-03T12:50:05.412Z,24.16
2022-09-03T13:00:14.216Z,23.14
2022-09-03T13:05:17.761Z,23.14
2022-09-03T13:10:24.646Z,25.75
2022-09-03T13:15:26.866Z,25.75
2022-09-03T13:20:32.454Z,26.72
2022-09-03T13:25:38.109Z,26.72
2022-09-03T13:35:48.718Z,24.14
2022-09-03T13:40:53.622Z,24.59
2022-09-03T13:45:57.308Z,24.59
2022-09-03T14:01:17.343Z,26.84
2022-09-03T14:06:24.966Z,27.45
2022-09-03T14:11:30.539Z,27.45
2022-09-03T14:16:37.137Z,25.93
2022-09-03T14:21:41.945Z,25.93
2022-09-03T14:26:49.747Z,28.32
2022-09-03T14:32:01.979Z,28.32
2022-09-03T14:37:08.592Z,24.74
2022-09-03T14:42:15.995Z,24.74
2022-09-03T14:57:44.443Z,22.45
2022-09-03T15:08:00.179Z,21.59
2022-09-03T15:13:09.089Z,24.76
2022-09-03T15:18:17.059Z,24.76
2022-09-03T15:38:47.603Z,27.72
2022-09-03T15:48:58.558Z,22.2
2022-09-03T15:59:11.279Z,21.58
2022-09-03T16:14:37.314Z,20.72
2022-09-03T16:19:43.022Z,20.45
2022-09-03T16:24:47.946Z,20.45
2022-09-03T16:35:02.344Z,20.46
2022-09-03T16:40:11.959Z,20.23
2022-09-03T16:45:18.405Z,19.76
2022-09-03T16:50:25.936Z,19.76
2022-09-03T17:16:01.453Z,17.61
2022-09-03T17:21:09.588Z,17.61
2022-09-03T17:31:19.497Z,16.97
2022-09-03T17:36:23.612Z,16.34
2022-09-03T17:46:40.383Z,16.18
2022-09-03T17:51:43.211Z,16
2022-09-03T17:56:48.909Z,16
2022-09-03T18:01:53.867Z,15.43
2022-09-03T18:06:59.996Z,15.43
2022-09-03T18:12:05.332Z,15.22
2022-09-03T18:17:10.003Z,15.22
2022-09-03T18:22:11.757Z,15.04
2022-09-03T18:27:17.203Z,15.04
2022-09-03T18:32:19.219Z,14.73
2022-09-03T18:37:22.472Z,14.73
2022-09-03T18:42:28.903Z,14.59
2022-09-03T18:52:42.921Z,14.5
2022-09-03T19:08:05.772Z,14.24
2022-09-03T19:23:25.683Z,14.07
2022-09-03T19:28:29.336Z,14.08
2022-09-03T19:33:35.892Z,14.08
2022-09-03T19:38:43.783Z,13.96
2022-09-03T19:43:50.544Z,13.96
2022-09-03T19:48:57.856Z,14.01
2022-09-03T19:54:03.373Z,13.97
2022-09-03T20:04:12.341Z,13.94
2022-09-03T20:09:17.970Z,13.94
2022-09-03T20:14:20.124Z,14.03
2022-09-03T20:29:43.034Z,14.29
2022-09-03T20:34:48.424Z,14.01
2022-09-03T20:45:03.561Z,14.02
2022-09-03T20:50:12.011Z,14.02
2022-09-03T20:55:16.520Z,14.02
2022-09-03T21:00:18.749Z,14.02
2022-09-03T21:05:24.529Z,14.02
2022-09-03T21:10:31.503Z,14.02
2022-09-03T21:15:38.484Z,14.02
2022-09-03T21:20:44.869Z,14.02
2022-09-03T21:25:50.298Z,14.02
2022-09-03T21:30:53.759Z,14.02
2022-09-03T21:36:01.834Z,14.02
